Time;durP1;ratioP1;P1;durP2;ratioP2;P2;SDS_P1;SDS_P2;PMS_P1;PMS_P2;Temp;Humidity;BMP_temperature;BMP_pressure;BME280_temperature;BME280_humidity;BME280_pressure;Samples;Min_cycle;Max_cycle;Signal;HPM_P1;HPM_P2
2021/10/04 00:01:00;;;;;;;4.28;3.88;;;15.30;99.90;;;;;;6167074;22;20647;-85
2021/10/04 00:04:12;;;;;;;4.72;4.25;;;15.30;99.90;;;;;;6138664;22;20470;-86
2021/10/04 00:07:27;;;;;;;3.72;3.42;;;15.30;99.90;;;;;;6105897;23;20435;-86
2021/10/04 00:10:44;;;;;;;4.03;3.70;;;15.30;99.90;;;;;;6166450;23;20396;-82
2021/10/04 00:13:49;;;;;;;7.43;5.20;;;15.30;99.90;;;;;;6210673;22;20368;-84
2021/10/04 00:17:37;;;;;;;4.18;3.78;;;15.30;99.90;;;;;;6176841;23;20425;-86
2021/10/04 00:21:12;;;;;;;4.93;4.53;;;15.30;99.90;;;;;;6159600;23;20375;-84
2021/10/04 00:24:49;;;;;;;4.00;3.70;;;15.30;99.90;;;;;;6153111;22;20388;-85
2021/10/04 00:28:17;;;;;;;3.80;3.40;;;15.30;99.90;;;;;;6126667;22;20913;-88
2021/10/04 00:31:30;;;;;;;4.70;4.30;;;15.30;99.90;;;;;;6162805;22;20363;-85
2021/10/04 00:35:22;;;;;;;4.13;3.80;;;15.30;99.90;;;;;;6189285;22;20591;-84
2021/10/04 00:38:24;;;;;;;4.30;3.90;;;15.30;99.90;;;;;;6179311;22;20361;-89
2021/10/04 00:42:22;;;;;;;5.55;5.03;;;15.40;99.90;;;;;;6158740;22;20933;-83
2021/10/04 00:45:46;;;;;;;4.32;3.92;;;15.30;99.90;;;;;;6206636;23;20420;-90
2021/10/04 00:48:53;;;;;;;4.78;4.20;;;15.30;99.90;;;;;;6197204;22;20405;-84
2021/10/04 00:55:50;;;;;;;4.05;3.65;;;15.40;99.90;;;;;;6105184;22;20372;-82
2021/10/04 00:59:13;;;;;;;4.15;3.85;;;15.40;99.90;;;;;;6207845;22;20364;-83
2021/10/04 01:02:48;;;;;;;4.13;3.73;;;15.40;99.90;;;;;;6142931;22;20445;-89
2021/10/04 01:06:08;;;;;;;4.25;3.83;;;15.40;99.90;;;;;;6164773;23;20755;-86
2021/10/04 01:09:58;;;;;;;3.90;3.58;;;15.30;99.90;;;;;;6168706;22;20437;-85
2021/10/04 01:13:14;;;;;;;4.50;4.10;;;15.40;99.90;;;;;;6201782;22;20377;-83
2021/10/04 01:16:37;;;;;;;4.22;3.83;;;15.30;99.90;;;;;;6158039;23;20435;-84
2021/10/04 01:20:14;;;;;;;5.07;4.57;;;15.40;99.90;;;;;;6149597;22;20373;-87
2021/10/04 01:24:06;;;;;;;4.47;4.07;;;15.30;99.90;;;;;;6159952;22;20366;-86
2021/10/04 01:27:21;;;;;;;4.93;4.53;;;15.40;99.90;;;;;;6192121;22;20384;-90
2021/10/04 01:30:26;;;;;;;3.92;3.63;;;15.30;99.90;;;;;;6191547;22;20396;-89
2021/10/04 01:34:06;;;;;;;3.67;3.37;;;15.30;99.90;;;;;;6166246;22;20425;-84
2021/10/04 01:37:19;;;;;;;4.60;4.20;;;15.40;99.90;;;;;;6190418;22;20435;-89
2021/10/04 01:41:04;;;;;;;4.90;4.43;;;15.30;99.90;;;;;;6222132;22;20464;-84
2021/10/04 01:44:00;;;;;;;4.30;3.90;;;15.30;99.90;;;;;;6200025;22;20409;-89
2021/10/04 01:47:36;;;;;;;4.80;4.15;;;15.40;99.90;;;;;;6196085;22;20414;-88
2021/10/04 01:54:52;;;;;;;4.15;3.75;;;15.30;99.90;;;;;;6180127;22;20369;-83
2021/10/04 01:58:30;;;;;;;5.35;3.72;;;15.30;99.90;;;;;;6190095;22;20765;-87
2021/10/04 02:01:47;;;;;;;4.40;4.00;;;15.30;99.90;;;;;;6172541;22;20371;-84
2021/10/04 02:05:32;;;;;;;4.03;3.65;;;15.30;99.90;;;;;;6136021;22;20373;-86
2021/10/04 02:08:48;;;;;;;4.47;4.10;;;15.30;99.90;;;;;;6139762;22;20375;-89
2021/10/04 02:12:08;;;;;;;4.78;4.38;;;15.30;99.90;;;;;;6199429;22;20398;-90
2021/10/04 02:15:30;;;;;;;4.72;4.22;;;15.30;99.90;;;;;;6131150;22;20388;-87
2021/10/04 02:23:49;;;;;;;5.43;4.90;;;15.20;99.90;;;;;;6239242;22;20379;-88
2021/10/04 02:26:41;;;;;;;5.35;4.85;;;15.20;99.90;;;;;;6166792;22;20410;-85
2021/10/04 02:29:32;;;;;;;4.73;4.20;;;15.20;99.90;;;;;;6132603;22;20367;-85
2021/10/04 02:32:31;;;;;;;4.07;3.78;;;15.20;99.90;;;;;;6163943;23;20676;-83
2021/10/04 02:36:13;;;;;;;4.57;4.13;;;15.20;99.90;;;;;;6222618;22;20369;-85
2021/10/04 02:40:40;;;;;;;4.75;4.25;;;15.20;99.90;;;;;;6097896;23;20436;-85
2021/10/04 02:49:38;;;;;;;5.07;4.10;;;15.20;99.90;;;;;;6161732;23;20485;-87
2021/10/04 02:52:50;;;;;;;4.97;4.43;;;15.20;99.90;;;;;;6107486;23;20388;-91
2021/10/04 02:56:22;;;;;;;4.22;3.92;;;15.20;99.90;;;;;;6113982;22;20903;-87
2021/10/04 03:00:03;;;;;;;4.38;3.97;;;15.20;99.90;;;;;;6216349;22;20860;-85
2021/10/04 03:03:14;;;;;;;3.92;3.53;;;15.20;99.90;;;;;;6136215;22;20384;-85
2021/10/04 03:06:58;;;;;;;4.40;4.00;;;15.20;99.90;;;;;;6203823;22;20385;-90
2021/10/04 03:10:22;;;;;;;5.25;4.32;;;15.30;99.90;;;;;;6169161;23;20396;-88
2021/10/04 03:13:32;;;;;;;3.80;3.50;;;15.20;99.90;;;;;;6155931;23;20375;-86
2021/10/04 03:16:58;;;;;;;3.65;3.35;;;15.20;99.90;;;;;;6159418;22;20408;-90
2021/10/04 03:20:37;;;;;;;3.47;3.17;;;15.20;99.90;;;;;;6143108;22;20388;-88
2021/10/04 03:28:16;;;;;;;4.00;3.70;;;15.30;99.90;;;;;;6141285;22;20373;-89
2021/10/04 03:44:35;;;;;;;3.80;3.50;;;15.10;99.90;;;;;;6258107;23;20410;-86
2021/10/04 03:52:32;;;;;;;4.22;3.83;;;15.20;99.90;;;;;;6195683;23;20365;-88
2021/10/04 04:05:43;;;;;;;5.68;5.18;;;15.20;99.90;;;;;;6071624;23;20435;-89
2021/10/04 04:10:09;;;;;;;6.25;4.88;;;15.20;99.90;;;;;;6095837;23;21054;-88
2021/10/04 04:13:56;;;;;;;4.25;3.85;;;15.10;99.90;;;;;;6062408;23;20378;-86
2021/10/04 04:18:11;;;;;;;5.20;4.70;;;15.10;99.90;;;;;;6062340;23;20386;-84
2021/10/04 04:21:34;;;;;;;3.65;3.35;;;15.00;99.90;;;;;;6095835;23;20393;-88
2021/10/04 04:25:34;;;;;;;3.85;3.55;;;14.90;99.90;;;;;;6073836;23;20455;-83
2021/10/04 04:29:00;;;;;;;4.30;3.90;;;14.90;99.90;;;;;;6074776;23;20380;-86
2021/10/04 04:53:54;;;;;;;3.80;3.50;;;15.00;99.90;;;;;;6277863;22;20368;-90
2021/10/04 04:57:01;;;;;;;5.50;5.00;;;14.90;99.90;;;;;;6233979;22;20385;-87
2021/10/04 05:01:29;;;;;;;5.03;4.63;;;14.90;99.90;;;;;;6163407;23;20430;-87
2021/10/04 05:05:38;;;;;;;4.20;3.83;;;14.90;99.90;;;;;;6050812;23;20417;-87
2021/10/04 05:09:21;;;;;;;4.10;3.75;;;14.80;99.90;;;;;;6107034;23;20435;-86
2021/10/04 05:13:02;;;;;;;4.20;3.80;;;15.00;99.90;;;;;;6126590;23;20390;-90
2021/10/04 05:16:49;;;;;;;5.35;4.85;;;14.90;99.90;;;;;;6155461;23;20476;-88
2021/10/04 05:19:45;;;;;;;3.87;3.57;;;14.90;99.90;;;;;;6190349;23;20427;-88
2021/10/04 05:22:30;;;;;;;6.25;4.43;;;14.90;99.90;;;;;;6130706;23;20368;-91
2021/10/04 05:25:15;;;;;;;4.27;3.87;;;14.90;99.90;;;;;;6242539;22;20407;-86
2021/10/04 05:27:59;;;;;;;4.47;3.25;;;14.90;99.90;;;;;;6221408;22;20386;-86
2021/10/04 05:30:46;;;;;;;3.78;3.45;;;14.90;99.90;;;;;;6220377;22;20387;-83
2021/10/04 05:33:30;;;;;;;4.00;3.60;;;15.00;99.90;;;;;;6222147;22;20363;-90
2021/10/04 05:36:16;;;;;;;3.37;3.13;;;15.00;99.90;;;;;;6200818;22;20377;-84
2021/10/04 05:39:00;;;;;;;4.25;3.85;;;15.10;99.90;;;;;;6201091;22;20359;-88
2021/10/04 05:42:22;;;;;;;5.40;4.10;;;15.10;99.90;;;;;;6262886;22;20372;-85
2021/10/04 05:45:37;;;;;;;4.13;3.80;;;15.10;99.90;;;;;;6272213;22;20371;-88
2021/10/04 05:48:25;;;;;;;4.03;3.63;;;15.10;99.90;;;;;;6183203;22;20933;-85
2021/10/04 05:51:17;;;;;;;4.53;4.10;;;15.20;99.90;;;;;;6150235;22;20383;-87
2021/10/04 05:54:02;;;;;;;3.93;3.60;;;15.20;99.90;;;;;;6225942;22;20403;-88
2021/10/04 05:56:48;;;;;;;4.50;4.10;;;15.20;99.90;;;;;;6234237;22;20414;-84
2021/10/04 05:59:35;;;;;;;4.63;4.07;;;15.20;99.90;;;;;;6235835;22;20393;-85
2021/10/04 06:02:25;;;;;;;5.63;4.78;;;15.20;99.90;;;;;;6184144;22;20390;-82
2021/10/04 06:05:12;;;;;;;4.13;3.80;;;15.20;99.90;;;;;;6221702;22;20387;-82
2021/10/04 06:07:57;;;;;;;4.25;3.38;;;15.20;99.90;;;;;;6228642;22;20361;-87
2021/10/04 06:10:43;;;;;;;4.10;3.80;;;15.30;99.90;;;;;;6204162;22;20369;-82
2021/10/04 06:13:29;;;;;;;3.15;2.88;;;15.40;99.90;;;;;;6234049;22;20365;-83
2021/10/04 06:16:13;;;;;;;4.38;3.97;;;15.40;99.90;;;;;;6235369;22;20381;-84
2021/10/04 06:19:09;;;;;;;3.38;3.17;;;15.40;99.90;;;;;;6207211;22;20362;-85
2021/10/04 06:21:53;;;;;;;4.20;3.80;;;15.40;99.90;;;;;;6195728;22;20449;-87
2021/10/04 06:24:39;;;;;;;3.88;3.58;;;15.50;99.90;;;;;;6192676;22;20361;-85
2021/10/04 06:27:25;;;;;;;3.40;3.13;;;15.50;99.90;;;;;;6213425;22;20381;-82
2021/10/04 06:30:13;;;;;;;4.38;3.97;;;15.50;99.90;;;;;;6210540;22;20367;-82
2021/10/04 06:32:58;;;;;;;3.78;3.47;;;15.60;99.90;;;;;;6225332;22;20427;-82
2021/10/04 06:35:45;;;;;;;3.80;3.50;;;15.70;99.90;;;;;;6208665;23;20384;-82
2021/10/04 06:38:31;;;;;;;6.20;4.10;;;15.70;99.90;;;;;;6222549;23;20396;-82
2021/10/04 06:41:16;;;;;;;3.45;3.05;;;15.80;99.90;;;;;;6212205;23;20388;-89
2021/10/04 06:44:01;;;;;;;4.82;3.67;;;15.80;99.90;;;;;;6255095;22;20393;-85
2021/10/04 06:47:05;;;;;;;3.25;3.03;;;15.70;99.90;;;;;;6234994;22;20393;-88
2021/10/04 06:49:49;;;;;;;3.40;3.13;;;15.80;99.90;;;;;;6231529;22;20368;-85
2021/10/04 06:52:34;;;;;;;4.18;3.78;;;15.90;99.90;;;;;;6210848;22;20449;-85
2021/10/04 06:55:20;;;;;;;3.50;3.20;;;15.90;99.90;;;;;;6206816;22;20368;-82
2021/10/04 06:58:05;;;;;;;2.78;2.58;;;15.90;99.90;;;;;;6213906;22;20396;-85
2021/10/04 07:00:53;;;;;;;3.42;3.13;;;16.00;99.90;;;;;;6207507;22;20420;-83
2021/10/04 07:03:39;;;;;;;3.72;3.40;;;16.00;99.90;;;;;;6208491;22;20367;-83
2021/10/04 07:06:23;;;;;;;3.00;2.80;;;16.00;99.90;;;;;;6212047;22;20383;-82
2021/10/04 07:09:37;;;;;;;3.37;3.07;;;16.10;99.90;;;;;;6207600;22;20420;-87
2021/10/04 07:12:22;;;;;;;3.22;3.03;;;16.30;99.90;;;;;;6229799;22;20408;-85
2021/10/04 07:15:07;;;;;;;3.20;2.90;;;16.30;99.90;;;;;;6199853;22;20400;-83
2021/10/04 07:17:51;;;;;;;3.50;3.20;;;16.40;99.90;;;;;;6131945;23;20403;-82
2021/10/04 07:20:37;;;;;;;3.57;2.87;;;16.40;99.90;;;;;;6192193;23;20365;-83
2021/10/04 07:23:23;;;;;;;3.25;2.92;;;16.40;99.90;;;;;;6223916;22;20732;-85
2021/10/04 07:26:07;;;;;;;2.83;2.63;;;16.50;99.90;;;;;;6212743;23;20413;-85
2021/10/04 07:28:52;;;;;;;2.88;2.67;;;16.60;99.90;;;;;;6171477;23;20360;-86
2021/10/04 07:31:36;;;;;;;3.15;2.85;;;16.60;99.90;;;;;;6216586;23;20388;-85
2021/10/04 07:34:20;;;;;;;2.85;2.65;;;16.70;99.90;;;;;;6172598;22;20364;-85
2021/10/04 07:37:05;;;;;;;3.28;2.97;;;16.80;99.90;;;;;;6187973;22;20384;-84
2021/10/04 07:39:49;;;;;;;4.00;3.10;;;16.80;99.90;;;;;;6240603;22;20361;-86
2021/10/04 07:42:33;;;;;;;2.85;2.65;;;16.90;99.90;;;;;;6200111;22;20353;-84
2021/10/04 07:45:18;;;;;;;3.15;2.85;;;16.80;99.90;;;;;;6237947;22;20368;-86
2021/10/04 07:48:02;;;;;;;2.97;2.67;;;16.80;99.90;;;;;;6196009;22;20365;-86
2021/10/04 07:50:48;;;;;;;4.93;2.25;;;17.00;99.90;;;;;;6213196;22;20365;-84
2021/10/04 07:53:34;;;;;;;2.90;2.70;;;17.00;99.90;;;;;;6192781;22;20487;-86
2021/10/04 07:56:19;;;;;;;2.75;2.55;;;16.90;99.90;;;;;;6193721;22;20409;-83
2021/10/04 07:59:04;;;;;;;3.15;2.65;;;16.90;99.90;;;;;;6216686;22;20422;-84
2021/10/04 08:01:48;;;;;;;2.05;1.95;;;17.00;99.90;;;;;;6211105;22;20381;-88
2021/10/04 08:04:36;;;;;;;1.98;1.77;;;17.10;99.90;;;;;;6179881;22;20365;-86
2021/10/04 08:07:21;;;;;;;2.40;2.20;;;17.20;99.90;;;;;;6217625;23;20465;-86
2021/10/04 08:10:06;;;;;;;2.50;2.30;;;17.20;99.90;;;;;;6176421;22;20373;-87
2021/10/04 08:12:51;;;;;;;2.13;1.92;;;17.30;99.90;;;;;;6228831;22;20425;-87
2021/10/04 08:15:40;;;;;;;3.80;1.83;;;17.30;99.90;;;;;;6216732;22;20365;-86
2021/10/04 08:18:24;;;;;;;1.75;1.65;;;17.40;99.90;;;;;;6194405;22;20387;-84
2021/10/04 08:21:08;;;;;;;1.65;1.55;;;17.50;99.90;;;;;;6234461;22;20702;-88
2021/10/04 08:23:53;;;;;;;1.95;1.60;;;17.60;99.90;;;;;;6210819;22;20465;-85
2021/10/04 08:26:37;;;;;;;1.70;1.60;;;17.60;99.90;;;;;;6191481;22;20446;-87
2021/10/04 08:29:22;;;;;;;1.77;1.67;;;17.80;99.90;;;;;;6213763;22;20420;-87
2021/10/04 08:32:07;;;;;;;1.70;1.60;;;17.80;99.90;;;;;;6173904;22;20392;-88
2021/10/04 08:34:52;;;;;;;1.50;1.40;;;17.90;99.90;;;;;;6234023;22;20412;-83
2021/10/04 08:37:37;;;;;;;1.80;1.60;;;18.10;99.90;;;;;;6206981;22;20371;-87
2021/10/04 08:40:22;;;;;;;1.40;1.30;;;18.30;99.90;;;;;;6234864;22;20365;-84
2021/10/04 08:43:07;;;;;;;1.20;1.20;;;18.40;99.90;;;;;;6192245;22;20416;-87
2021/10/04 08:45:54;;;;;;;1.60;1.50;;;18.30;99.90;;;;;;6213824;22;20381;-83
2021/10/04 08:48:40;;;;;;;1.20;1.10;;;18.40;99.90;;;;;;6216092;22;21067;-82
2021/10/04 08:51:24;;;;;;;1.30;1.27;;;18.30;99.90;;;;;;6194053;22;20377;-85
2021/10/04 08:54:09;;;;;;;1.20;1.20;;;18.20;99.90;;;;;;6214783;22;20396;-88
2021/10/04 08:56:54;;;;;;;1.38;1.30;;;18.10;99.90;;;;;;6256758;22;20377;-90
2021/10/04 08:59:39;;;;;;;1.23;1.20;;;18.10;99.90;;;;;;6205981;23;20369;-87
2021/10/04 09:02:31;;;;;;;1.08;1.08;;;18.00;99.90;;;;;;6222151;23;20365;-85
2021/10/04 09:05:25;;;;;;;1.05;1.05;;;18.00;99.90;;;;;;6200244;22;20369;-87
2021/10/04 09:08:12;;;;;;;0.90;0.90;;;18.00;99.90;;;;;;6220990;23;21200;-84
2021/10/04 09:10:57;;;;;;;0.90;0.90;;;18.10;99.90;;;;;;6236592;22;20405;-88
2021/10/04 09:13:46;;;;;;;0.95;0.95;;;18.00;99.90;;;;;;6251132;22;20381;-88
2021/10/04 09:16:49;;;;;;;1.02;0.98;;;17.70;99.90;;;;;;6216100;22;20376;-83
2021/10/04 09:19:44;;;;;;;0.80;0.80;;;17.80;99.90;;;;;;6228235;22;20373;-89
2021/10/04 09:22:29;;;;;;;3.40;0.90;;;17.80;99.90;;;;;;6187765;22;20892;-88
2021/10/04 09:25:13;;;;;;;1.08;0.98;;;17.90;99.90;;;;;;6214726;22;20412;-87
2021/10/04 09:27:59;;;;;;;0.77;0.77;;;17.80;99.90;;;;;;6193754;22;20412;-87
2021/10/04 09:30:45;;;;;;;0.90;0.90;;;17.90;99.90;;;;;;6236482;22;20368;-86
2021/10/04 09:33:29;;;;;;;0.70;0.70;;;17.80;99.90;;;;;;6192628;22;20372;-86
2021/10/04 09:36:18;;;;;;;0.88;0.88;;;17.90;99.90;;;;;;6213206;22;20381;-85
2021/10/04 09:39:17;;;;;;;1.10;1.00;;;18.00;99.90;;;;;;6214651;22;20410;-84
2021/10/04 09:42:10;;;;;;;0.73;0.73;;;18.10;99.90;;;;;;6174237;22;20408;-87
2021/10/04 09:45:01;;;;;;;0.80;0.80;;;18.10;99.90;;;;;;6214738;22;20365;-87
2021/10/04 09:47:50;;;;;;;0.70;0.70;;;18.10;99.90;;;;;;6230428;22;20385;-87
2021/10/04 09:50:34;;;;;;;0.80;0.80;;;18.30;99.90;;;;;;6197264;22;20360;-86
2021/10/04 09:53:19;;;;;;;0.80;0.80;;;18.50;99.90;;;;;;6206632;22;20382;-86
2021/10/04 09:56:03;;;;;;;1.95;0.73;;;18.60;99.90;;;;;;6214542;22;20384;-88
2021/10/04 09:58:48;;;;;;;1.02;0.88;;;18.60;99.90;;;;;;6175249;22;20379;-86
2021/10/04 10:01:34;;;;;;;0.70;0.70;;;18.90;99.90;;;;;;6215664;22;20451;-89
2021/10/04 10:04:20;;;;;;;1.27;1.20;;;19.00;99.90;;;;;;6210432;22;20379;-88
2021/10/04 10:07:06;;;;;;;0.87;0.87;;;19.20;99.90;;;;;;6213477;22;20424;-87
2021/10/04 10:09:55;;;;;;;0.90;0.90;;;19.10;99.90;;;;;;6185848;23;20384;-89
2021/10/04 10:12:40;;;;;;;0.90;0.90;;;19.10;99.90;;;;;;6213595;23;20385;-86
2021/10/04 10:15:29;;;;;;;0.98;0.98;;;19.10;99.90;;;;;;6221476;22;20371;-83
2021/10/04 10:18:24;;;;;;;1.15;1.10;;;19.00;99.90;;;;;;6183179;22;20414;-88
2021/10/04 10:21:09;;;;;;;0.98;0.95;;;19.00;99.90;;;;;;6222394;22;20386;-84
2021/10/04 10:23:59;;;;;;;0.65;0.65;;;19.10;99.90;;;;;;6221242;22;20363;-88
2021/10/04 10:26:49;;;;;;;0.60;0.60;;;19.10;99.90;;;;;;6242459;22;20539;-86
2021/10/04 10:29:35;;;;;;;1.20;0.90;;;19.10;99.90;;;;;;6219954;23;20361;-87
2021/10/04 10:32:20;;;;;;;1.02;0.88;;;19.00;99.90;;;;;;6198714;22;20371;-85
2021/10/04 10:35:04;;;;;;;0.80;0.80;;;18.70;99.90;;;;;;6192998;22;20364;-85
2021/10/04 10:37:52;;;;;;;0.98;0.88;;;18.70;99.90;;;;;;6213760;22;20368;-89
2021/10/04 10:40:36;;;;;;;0.60;0.60;;;18.70;99.90;;;;;;6234476;22;20396;-88
2021/10/04 10:43:21;;;;;;;0.80;0.80;;;18.90;99.90;;;;;;6211291;22;20364;-89
2021/10/04 10:46:06;;;;;;;0.68;0.68;;;19.10;99.90;;;;;;6213402;22;20377;-85
2021/10/04 10:48:51;;;;;;;0.50;0.50;;;19.20;99.90;;;;;;6210351;22;20406;-90
2021/10/04 10:51:37;;;;;;;0.80;0.80;;;19.50;99.90;;;;;;6191223;23;20420;-89
2021/10/04 10:54:39;;;;;;;0.93;0.90;;;19.50;99.90;;;;;;6189261;22;20420;-83
2021/10/04 10:57:43;;;;;;;0.60;0.60;;;19.60;99.90;;;;;;6203053;23;20432;-86
2021/10/04 11:00:38;;;;;;;0.70;0.70;;;19.80;99.90;;;;;;6213956;22;20430;-87
2021/10/04 11:03:25;;;;;;;0.70;0.70;;;19.80;99.90;;;;;;6230409;22;20371;-84
2021/10/04 11:06:09;;;;;;;1.63;0.90;;;19.90;99.90;;;;;;6191107;22;20396;-86
2021/10/04 11:08:54;;;;;;;0.70;0.70;;;20.30;99.90;;;;;;6211187;22;20365;-89
2021/10/04 11:11:40;;;;;;;0.77;0.77;;;20.60;99.90;;;;;;6204357;22;20990;-88
2021/10/04 11:14:25;;;;;;;0.80;0.80;;;20.70;99.90;;;;;;6205763;22;20373;-85
2021/10/04 11:17:09;;;;;;;0.60;0.60;;;20.70;99.90;;;;;;6229104;22;20369;-86
2021/10/04 11:19:54;;;;;;;0.70;0.70;;;20.50;99.90;;;;;;6209673;22;20850;-87
2021/10/04 11:22:38;;;;;;;0.60;0.60;;;20.20;99.90;;;;;;6180935;23;20377;-88
2021/10/04 11:25:24;;;;;;;0.50;0.50;;;20.20;99.90;;;;;;6219108;22;20367;-85
2021/10/04 11:28:09;;;;;;;0.60;0.60;;;20.30;99.90;;;;;;6218338;22;20368;-86
2021/10/04 11:30:58;;;;;;;0.50;0.50;;;20.40;99.90;;;;;;6157440;23;20409;-83
2021/10/04 11:33:52;;;;;;;1.65;0.70;;;20.40;99.90;;;;;;6196690;23;20811;-90
2021/10/04 11:37:07;;;;;;;0.93;0.70;;;20.40;99.90;;;;;;6209971;22;20433;-87
2021/10/04 11:39:51;;;;;;;1.40;0.60;;;20.20;99.90;;;;;;6218744;23;20373;-88
2021/10/04 11:42:35;;;;;;;0.50;0.50;;;20.30;99.90;;;;;;6219658;22;20368;-86
2021/10/04 11:45:20;;;;;;;0.60;0.60;;;20.30;99.90;;;;;;6208999;22;20388;-84
2021/10/04 11:48:05;;;;;;;0.40;0.40;;;20.30;99.90;;;;;;6210674;22;20364;-84
2021/10/04 11:50:49;;;;;;;0.50;0.50;;;20.40;99.90;;;;;;6215035;22;20705;-85
2021/10/04 11:53:34;;;;;;;0.57;0.57;;;20.40;99.90;;;;;;6219830;23;20360;-90
2021/10/04 11:56:19;;;;;;;0.40;0.40;;;20.60;99.90;;;;;;6190451;22;20384;-89
2021/10/04 11:59:04;;;;;;;0.60;0.60;;;20.70;99.90;;;;;;6230499;22;20396;-87
2021/10/04 12:01:49;;;;;;;0.60;0.60;;;20.70;99.90;;;;;;6188878;22;20385;-86
2021/10/04 12:04:33;;;;;;;0.45;0.45;;;20.80;99.90;;;;;;6231311;22;20365;-86
2021/10/04 12:07:20;;;;;;;0.50;0.50;;;20.60;99.90;;;;;;6210663;22;20405;-88
2021/10/04 12:10:05;;;;;;;0.57;0.57;;;20.60;99.90;;;;;;6231087;22;20434;-86
2021/10/04 12:12:49;;;;;;;0.50;0.50;;;20.40;99.90;;;;;;6231967;23;20410;-85
2021/10/04 12:15:33;;;;;;;1.10;0.70;;;20.10;99.90;;;;;;6184309;22;20358;-85
2021/10/04 12:18:42;;;;;;;0.40;0.40;;;20.00;99.90;;;;;;6220564;22;20420;-84
2021/10/04 12:21:38;;;;;;;0.43;0.43;;;19.90;99.90;;;;;;6241325;22;20391;-83
2021/10/04 12:24:27;;;;;;;0.50;0.50;;;20.00;99.90;;;;;;6263447;22;20398;-87
2021/10/04 12:27:16;;;;;;;0.45;0.45;;;20.20;99.90;;;;;;6196581;23;20377;-90
2021/10/04 12:30:01;;;;;;;0.50;0.50;;;20.30;99.90;;;;;;6222132;22;20367;-85
2021/10/04 12:32:49;;;;;;;0.50;0.50;;;20.20;99.90;;;;;;6198419;22;20363;-84
2021/10/04 12:35:33;;;;;;;0.40;0.40;;;19.90;99.90;;;;;;6199784;22;20382;-86
2021/10/04 12:38:18;;;;;;;0.50;0.50;;;19.90;99.90;;;;;;6241711;22;20378;-85
2021/10/04 12:41:03;;;;;;;0.40;0.40;;;20.00;99.90;;;;;;6218484;22;20379;-87
2021/10/04 12:43:51;;;;;;;0.50;0.50;;;20.20;99.90;;;;;;6201049;22;20753;-87
2021/10/04 12:46:35;;;;;;;0.45;0.45;;;20.30;99.90;;;;;;6242213;22;20376;-85
2021/10/04 12:49:20;;;;;;;0.60;0.60;;;20.40;99.90;;;;;;6220915;22;20476;-87
2021/10/04 12:52:05;;;;;;;3.25;1.25;;;20.30;99.90;;;;;;6263457;22;20371;-87
2021/10/04 12:54:50;;;;;;;0.60;0.60;;;20.20;99.90;;;;;;6220285;22;20402;-91
2021/10/04 12:57:36;;;;;;;1.10;0.57;;;20.00;99.90;;;;;;6201004;22;20386;-89
2021/10/04 13:00:28;;;;;;;0.60;0.60;;;20.00;99.90;;;;;;6262976;22;20403;-86
2021/10/04 13:03:13;;;;;;;0.50;0.50;;;20.20;99.90;;;;;;6220437;22;20366;-84
2021/10/04 13:05:57;;;;;;;0.43;0.43;;;20.40;99.90;;;;;;6221600;22;20367;-85
2021/10/04 13:08:41;;;;;;;0.43;0.43;;;20.40;99.90;;;;;;6201014;22;20447;-86
2021/10/04 13:11:28;;;;;;;0.57;0.57;;;20.50;99.90;;;;;;6198045;22;20434;-89
2021/10/04 13:14:12;;;;;;;0.43;0.43;;;20.30;99.90;;;;;;6222032;22;20902;-84
2021/10/04 13:16:57;;;;;;;0.65;0.60;;;20.30;99.90;;;;;;6219776;22;20386;-91
2021/10/04 13:19:42;;;;;;;0.50;0.50;;;20.00;99.90;;;;;;6242697;22;20439;-86
2021/10/04 13:22:27;;;;;;;0.57;0.57;;;19.80;99.90;;;;;;6220015;22;20928;-87
2021/10/04 13:25:11;;;;;;;0.40;0.40;;;19.80;99.90;;;;;;6220924;22;20518;-90
2021/10/04 13:27:55;;;;;;;0.50;0.50;;;19.80;99.90;;;;;;6219454;22;20918;-86
2021/10/04 13:30:40;;;;;;;0.50;0.50;;;19.80;99.90;;;;;;6219284;22;20371;-82
2021/10/04 13:33:24;;;;;;;1.10;0.80;;;19.70;99.90;;;;;;6219605;22;20362;-87
2021/10/04 13:36:09;;;;;;;0.65;0.65;;;19.80;99.90;;;;;;6262803;22;20386;-87
2021/10/04 13:38:54;;;;;;;0.63;0.63;;;19.60;99.90;;;;;;6199750;22;20355;-90
2021/10/04 13:41:38;;;;;;;0.50;0.50;;;19.40;99.90;;;;;;6219181;22;20358;-86
2021/10/04 13:44:24;;;;;;;0.50;0.50;;;19.30;99.90;;;;;;6221035;22;20939;-82
2021/10/04 13:47:09;;;;;;;0.90;0.90;;;19.30;99.90;;;;;;6263960;22;20371;-88
2021/10/04 13:49:53;;;;;;;0.47;0.47;;;19.20;99.90;;;;;;6199830;22;20461;-84
2021/10/04 13:52:38;;;;;;;0.50;0.50;;;19.10;99.90;;;;;;6241187;22;20437;-85
2021/10/04 13:55:22;;;;;;;0.70;0.50;;;19.10;99.90;;;;;;6187057;22;20403;-87
2021/10/04 13:58:06;;;;;;;0.43;0.43;;;19.20;99.90;;;;;;6222085;22;20379;-90
2021/10/04 14:00:51;;;;;;;0.60;0.57;;;18.90;99.90;;;;;;6225103;22;20378;-87
2021/10/04 14:03:35;;;;;;;1.20;0.50;;;18.90;99.90;;;;;;6221803;22;20661;-85
2021/10/04 14:06:20;;;;;;;0.40;0.40;;;18.80;99.90;;;;;;6201494;22;20418;-86
2021/10/04 14:09:04;;;;;;;0.40;0.40;;;18.90;99.90;;;;;;6222017;22;20387;-86
2021/10/04 14:11:50;;;;;;;0.40;0.40;;;19.10;99.90;;;;;;6201244;22;20367;-87
2021/10/04 14:14:34;;;;;;;0.38;0.38;;;19.00;99.90;;;;;;6220341;22;20485;-90
2021/10/04 14:17:22;;;;;;;0.45;0.45;;;19.10;99.90;;;;;;6222250;22;20364;-87
2021/10/04 14:20:11;;;;;;;0.40;0.40;;;19.00;99.90;;;;;;6202033;22;20621;-86
2021/10/04 14:23:02;;;;;;;0.37;0.37;;;19.00;99.90;;;;;;6221136;22;20378;-87
2021/10/04 14:25:49;;;;;;;0.40;0.40;;;19.10;99.90;;;;;;6262656;22;20465;-89
2021/10/04 14:28:33;;;;;;;0.50;0.50;;;19.20;99.90;;;;;;6200623;22;20445;-87
2021/10/04 14:31:17;;;;;;;0.70;0.70;;;19.10;99.90;;;;;;6286787;22;20391;-91
2021/10/04 14:34:01;;;;;;;0.60;0.60;;;19.10;99.90;;;;;;6198064;22;20367;-86
2021/10/04 14:36:46;;;;;;;0.40;0.40;;;18.90;99.90;;;;;;6200773;22;20442;-86
2021/10/04 14:39:30;;;;;;;2.00;0.70;;;18.80;99.90;;;;;;6262910;22;20701;-88
2021/10/04 14:42:17;;;;;;;4.60;0.77;;;18.80;99.90;;;;;;6199521;22;20393;-87
2021/10/04 14:45:03;;;;;;;3.22;1.17;;;18.60;99.90;;;;;;6199061;22;20394;-84
2021/10/04 14:47:47;;;;;;;1.10;0.75;;;18.50;99.90;;;;;;6239936;22;20383;-87
2021/10/04 14:50:32;;;;;;;4.07;0.77;;;18.40;99.90;;;;;;6199556;22;20363;-85
2021/10/04 14:53:16;;;;;;;0.80;0.80;;;18.30;99.90;;;;;;6219985;22;20443;-85
2021/10/04 14:56:02;;;;;;;0.55;0.55;;;18.10;99.90;;;;;;6221202;22;20383;-86
2021/10/04 14:58:47;;;;;;;0.57;0.57;;;18.10;99.90;;;;;;6241242;22;20354;-85
2021/10/04 15:01:32;;;;;;;0.60;0.60;;;18.10;99.90;;;;;;6219533;22;20405;-86
2021/10/04 15:04:18;;;;;;;1.00;0.85;;;18.20;99.90;;;;;;6241396;22;20364;-91
2021/10/04 15:07:03;;;;;;;0.68;0.68;;;18.00;99.90;;;;;;6207094;22;20388;-89
2021/10/04 15:09:48;;;;;;;1.50;0.70;;;17.90;99.90;;;;;;6240570;22;20375;-86
2021/10/04 15:12:32;;;;;;;1.20;0.75;;;17.90;99.90;;;;;;6222142;22;20386;-88
2021/10/04 15:15:16;;;;;;;0.73;0.70;;;17.80;99.90;;;;;;6242391;22;20359;-88
2021/10/04 15:18:04;;;;;;;1.15;1.15;;;17.90;99.90;;;;;;6221402;22;20387;-85
2021/10/04 15:20:49;;;;;;;1.98;1.40;;;17.70;99.90;;;;;;6263863;22;20418;-85
2021/10/04 15:23:33;;;;;;;1.33;1.23;;;17.60;99.90;;;;;;6188025;23;20423;-88
2021/10/04 15:26:17;;;;;;;1.38;1.00;;;17.60;99.90;;;;;;6204536;22;20431;-89
2021/10/04 15:29:02;;;;;;;0.47;0.47;;;17.70;99.90;;;;;;6209035;22;20885;-87
2021/10/04 15:31:47;;;;;;;1.45;0.60;;;17.80;99.90;;;;;;6209788;22;20372;-85
2021/10/04 15:34:31;;;;;;;0.70;0.70;;;18.10;99.90;;;;;;6221075;22;20352;-86
2021/10/04 15:37:15;;;;;;;2.10;0.93;;;17.90;99.90;;;;;;6199916;22;20570;-90
2021/10/04 15:40:00;;;;;;;0.70;0.70;;;17.70;99.90;;;;;;6198935;22;20433;-90
2021/10/04 15:42:44;;;;;;;2.40;1.30;;;17.60;99.90;;;;;;6222196;22;20749;-88
2021/10/04 15:45:29;;;;;;;1.58;1.10;;;17.60;99.90;;;;;;6243669;22;20386;-85
2021/10/04 15:48:18;;;;;;;0.80;0.80;;;17.40;99.90;;;;;;6245546;22;20367;-86
2021/10/04 15:51:03;;;;;;;0.60;0.60;;;17.40;99.90;;;;;;6264136;22;20439;-89
2021/10/04 15:53:47;;;;;;;0.70;0.70;;;17.40;99.90;;;;;;6203662;22;20390;-88
2021/10/04 15:56:32;;;;;;;1.30;1.20;;;17.30;99.90;;;;;;6224849;22;20367;-89
2021/10/04 15:59:16;;;;;;;0.90;0.68;;;17.20;99.90;;;;;;6203617;22;20406;-85
2021/10/04 16:02:01;;;;;;;0.73;0.73;;;17.10;99.90;;;;;;6201215;22;20363;-84
2021/10/04 16:04:50;;;;;;;0.47;0.47;;;17.00;99.90;;;;;;6244485;22;20355;-86
2021/10/04 16:07:41;;;;;;;1.88;0.70;;;17.00;99.90;;;;;;6225826;22;20510;-86
2021/10/04 16:10:33;;;;;;;0.60;0.60;;;17.00;99.90;;;;;;6195538;23;20385;-87
2021/10/04 16:13:17;;;;;;;0.80;0.80;;;17.10;99.90;;;;;;6177349;23;20415;-87
2021/10/04 16:16:02;;;;;;;2.10;1.00;;;17.00;99.90;;;;;;6192933;23;20356;-83
2021/10/04 16:18:47;;;;;;;0.80;0.80;;;17.00;99.90;;;;;;6211391;23;20404;-85
2021/10/04 16:21:32;;;;;;;1.30;0.88;;;17.00;99.90;;;;;;6200179;22;20377;-86
2021/10/04 16:24:16;;;;;;;0.90;0.70;;;17.00;99.90;;;;;;6172040;23;20434;-83
2021/10/04 16:27:02;;;;;;;0.73;0.73;;;17.00;99.90;;;;;;6219770;22;20416;-91
